Time;durP1;ratioP1;P1;durP2;ratioP2;P2;SDS_P1;SDS_P2;PMS_P1;PMS_P2;Temp;Humidity;BMP_temperature;BMP_pressure;BME280_temperature;BME280_humidity;BME280_pressure;Samples;Min_cycle;Max_cycle;Signal;HPM_P1;HPM_P2
2023/10/10 00:01:03;;;;;;;8.45;6.95;;;;;;;;;;5082192;28;20049;-61
2023/10/10 00:03:39;;;;;;;12.48;8.07;;;;;;;;;;5069797;28;20104;-60
2023/10/10 00:06:08;;;;;;;11.57;8.20;;;;;;;;;;5081192;28;20148;-60
2023/10/10 00:08:40;;;;;;;12.95;8.23;;;;;;;;;;5077893;28;20433;-61
2023/10/10 00:11:14;;;;;;;11.90;7.07;;;;;;;;;;5066877;28;20416;-60
2023/10/10 00:13:52;;;;;;;11.10;7.78;;;;;;;;;;5081986;28;20106;-59
2023/10/10 00:16:26;;;;;;;9.88;7.10;;;;;;;;;;5074146;28;20151;-60
2023/10/10 00:18:56;;;;;;;10.85;7.72;;;;;;;;;;5081455;28;20052;-59
2023/10/10 00:21:23;;;;;;;13.23;7.35;;;;;;;;;;5072472;28;20482;-61
2023/10/10 00:23:53;;;;;;;16.50;7.63;;;;;;;;;;5066174;28;20062;-61
2023/10/10 00:26:21;;;;;;;13.07;7.32;;;;;;;;;;5082941;28;20051;-60
2023/10/10 00:28:54;;;;;;;11.90;7.38;;;;;;;;;;5082455;28;20116;-60
2023/10/10 00:31:22;;;;;;;9.82;7.32;;;;;;;;;;5072093;28;20134;-61
2023/10/10 00:33:50;;;;;;;16.95;8.23;;;;;;;;;;5070429;28;20056;-60
2023/10/10 00:36:35;;;;;;;13.00;8.48;;;;;;;;;;5082313;28;20083;-61
2023/10/10 00:41:44;;;;;;;15.75;8.15;;;;;;;;;;5061989;28;20053;-60
2023/10/10 00:44:17;;;;;;;13.07;8.18;;;;;;;;;;5077373;28;20099;-60
2023/10/10 00:46:51;;;;;;;11.32;7.78;;;;;;;;;;5072536;28;20092;-61
2023/10/10 00:49:23;;;;;;;14.82;7.82;;;;;;;;;;5082035;28;20064;-61
2023/10/10 00:51:51;;;;;;;11.10;7.80;;;;;;;;;;5081900;28;20048;-60
2023/10/10 00:56:55;;;;;;;16.15;7.65;;;;;;;;;;5081007;28;20052;-61
2023/10/10 00:59:34;;;;;;;13.73;7.97;;;;;;;;;;5079915;28;20080;-60
2023/10/10 01:02:03;;;;;;;12.07;7.60;;;;;;;;;;5067188;28;20056;-61
2023/10/10 01:04:38;;;;;;;10.80;7.82;;;;;;;;;;5081767;28;20091;-59
2023/10/10 01:07:09;;;;;;;13.88;9.25;;;;;;;;;;5062222;28;20112;-61
2023/10/10 01:09:55;;;;;;;15.90;8.48;;;;;;;;;;5078399;28;20078;-61
2023/10/10 01:12:26;;;;;;;16.98;8.98;;;;;;;;;;5070238;28;20056;-61
2023/10/10 01:14:54;;;;;;;18.08;9.68;;;;;;;;;;5076011;28;20507;-61
2023/10/10 01:17:28;;;;;;;13.30;9.70;;;;;;;;;;5079985;28;20060;-59
2023/10/10 01:19:58;;;;;;;19.08;11.00;;;;;;;;;;5081964;28;20606;-61
2023/10/10 01:22:36;;;;;;;20.35;11.02;;;;;;;;;;5078437;28;20053;-61
2023/10/10 01:25:28;;;;;;;15.00;11.13;;;;;;;;;;5073945;28;20143;-60
2023/10/10 01:27:53;;;;;;;20.08;11.15;;;;;;;;;;5084490;28;20057;-60
2023/10/10 01:30:43;;;;;;;14.07;10.50;;;;;;;;;;5084500;28;20064;-61
2023/10/10 01:33:07;;;;;;;16.88;11.90;;;;;;;;;;5065410;28;20061;-60
2023/10/10 01:35:34;;;;;;;19.77;11.82;;;;;;;;;;5076421;28;20524;-61
2023/10/10 01:38:01;;;;;;;16.38;11.57;;;;;;;;;;5083665;28;20063;-61
2023/10/10 01:40:28;;;;;;;15.30;11.75;;;;;;;;;;5083829;28;20048;-61
2023/10/10 01:42:59;;;;;;;17.13;11.63;;;;;;;;;;5077076;28;20068;-61
2023/10/10 01:45:29;;;;;;;19.20;11.30;;;;;;;;;;5085127;28;20126;-61
2023/10/10 01:48:02;;;;;;;16.30;11.48;;;;;;;;;;5084220;28;20052;-61
2023/10/10 01:50:31;;;;;;;19.05;12.25;;;;;;;;;;5083736;28;20056;-61
2023/10/10 01:52:58;;;;;;;18.60;12.05;;;;;;;;;;5084547;28;20141;-61
2023/10/10 01:55:25;;;;;;;18.92;12.25;;;;;;;;;;5084478;28;20084;-61
2023/10/10 01:57:51;;;;;;;16.88;12.38;;;;;;;;;;5084172;28;20048;-61
2023/10/10 02:00:36;;;;;;;18.33;12.60;;;;;;;;;;5084186;28;20059;-60
2023/10/10 02:03:03;;;;;;;17.52;12.48;;;;;;;;;;5083428;28;20087;-61
2023/10/10 02:08:09;;;;;;;18.23;11.88;;;;;;;;;;5068939;28;20503;-58
2023/10/10 02:10:36;;;;;;;20.42;12.75;;;;;;;;;;5065399;28;20147;-61
2023/10/10 02:13:07;;;;;;;20.33;12.05;;;;;;;;;;5078699;28;20056;-61
2023/10/10 02:15:34;;;;;;;17.40;12.30;;;;;;;;;;5083707;28;20053;-60
2023/10/10 02:18:12;;;;;;;17.38;12.02;;;;;;;;;;5084439;28;20056;-60
2023/10/10 02:23:34;;;;;;;20.58;12.70;;;;;;;;;;5065638;28;20056;-60
2023/10/10 02:26:23;;;;;;;19.55;12.40;;;;;;;;;;5083709;28;20572;-59
2023/10/10 02:29:16;;;;;;;18.65;12.93;;;;;;;;;;5077690;28;20534;-60
2023/10/10 02:31:41;;;;;;;17.70;12.40;;;;;;;;;;5074971;28;20102;-61
2023/10/10 02:34:10;;;;;;;16.35;11.95;;;;;;;;;;5081719;28;20080;-60
2023/10/10 02:36:40;;;;;;;17.25;12.02;;;;;;;;;;5072608;28;20049;-58
2023/10/10 02:41:48;;;;;;;15.98;11.35;;;;;;;;;;5083371;28;20059;-60
2023/10/10 02:47:14;;;;;;;18.00;12.63;;;;;;;;;;5058492;28;20060;-61
2023/10/10 02:49:42;;;;;;;20.42;12.88;;;;;;;;;;5081713;28;20538;-60
2023/10/10 02:52:14;;;;;;;19.35;12.57;;;;;;;;;;5062576;28;20056;-61
2023/10/10 02:54:53;;;;;;;19.75;12.45;;;;;;;;;;5071662;28;20052;-61
2023/10/10 02:59:58;;;;;;;19.42;13.32;;;;;;;;;;5083750;28;20527;-61
2023/10/10 03:02:29;;;;;;;23.38;15.23;;;;;;;;;;5070803;28;20048;-61
2023/10/10 03:07:30;;;;;;;22.63;14.95;;;;;;;;;;5078687;28;20578;-61
2023/10/10 03:12:41;;;;;;;25.63;15.75;;;;;;;;;;5072114;28;20059;-61
2023/10/10 03:25:47;;;;;;;36.08;21.90;;;;;;;;;;5083460;28;20072;-60
2023/10/10 03:28:21;;;;;;;39.45;22.95;;;;;;;;;;5080228;28;20490;-60
2023/10/10 03:30:51;;;;;;;36.85;23.23;;;;;;;;;;5066102;28;20052;-61
2023/10/10 03:36:38;;;;;;;42.50;26.02;;;;;;;;;;5068887;28;20577;-61
2023/10/10 05:25:55;;;;;;;57.88;30.27;;;;;;;;;;5020075;28;20627;-61
2023/10/10 05:28:22;;;;;;;52.28;29.55;;;;;;;;;;5021772;28;20129;-57
2023/10/10 05:30:48;;;;;;;51.75;30.00;;;;;;;;;;5020581;28;20062;-60
2023/10/10 05:33:19;;;;;;;54.60;30.83;;;;;;;;;;5021747;28;20065;-61
2023/10/10 05:35:49;;;;;;;50.45;30.88;;;;;;;;;;5020765;28;20145;-60
2023/10/10 05:38:16;;;;;;;50.72;31.63;;;;;;;;;;5021710;28;20181;-60
2023/10/10 05:40:43;;;;;;;57.67;34.58;;;;;;;;;;5022233;28;20049;-60
2023/10/10 05:43:15;;;;;;;58.33;32.53;;;;;;;;;;5044391;28;20132;-60
2023/10/10 05:45:42;;;;;;;56.78;31.17;;;;;;;;;;5076410;28;20048;-60
2023/10/10 05:48:09;;;;;;;60.00;33.47;;;;;;;;;;5082764;28;20335;-60
2023/10/10 05:50:37;;;;;;;56.60;32.90;;;;;;;;;;5080815;28;20075;-61
2023/10/10 05:53:06;;;;;;;55.05;33.83;;;;;;;;;;5085055;28;20139;-60
2023/10/10 05:55:33;;;;;;;55.28;33.15;;;;;;;;;;5083115;28;20481;-61
2023/10/10 05:58:02;;;;;;;54.35;32.05;;;;;;;;;;5082619;28;20080;-60
2023/10/10 06:00:29;;;;;;;56.05;33.63;;;;;;;;;;5081679;28;20056;-60
2023/10/10 06:02:56;;;;;;;50.17;31.42;;;;;;;;;;5082843;28;20057;-60
2023/10/10 06:05:22;;;;;;;52.70;31.48;;;;;;;;;;5081441;28;20052;-60
2023/10/10 06:07:49;;;;;;;55.60;33.85;;;;;;;;;;5076445;28;20056;-60
2023/10/10 06:10:16;;;;;;;49.53;32.28;;;;;;;;;;5082383;28;20517;-60
2023/10/10 06:12:49;;;;;;;55.05;33.83;;;;;;;;;;5081241;28;20053;-59
2023/10/10 06:15:19;;;;;;;50.17;31.77;;;;;;;;;;5083864;28;20060;-61
2023/10/10 06:17:45;;;;;;;57.50;32.92;;;;;;;;;;5083395;28;20052;-60
2023/10/10 06:20:16;;;;;;;50.35;32.15;;;;;;;;;;5082424;28;20059;-60
2023/10/10 06:22:45;;;;;;;54.22;31.45;;;;;;;;;;5079439;28;20045;-62
2023/10/10 06:25:17;;;;;;;50.88;32.65;;;;;;;;;;5083368;28;20068;-62
2023/10/10 06:27:54;;;;;;;47.28;31.52;;;;;;;;;;5082523;28;20477;-62
2023/10/10 06:30:20;;;;;;;48.15;31.20;;;;;;;;;;5077757;28;20114;-62
2023/10/10 06:32:47;;;;;;;50.75;32.35;;;;;;;;;;5083240;28;20055;-62
2023/10/10 06:37:45;;;;;;;49.08;33.83;;;;;;;;;;5084080;28;20122;-60
2023/10/10 06:40:13;;;;;;;50.97;32.78;;;;;;;;;;5080900;28;20098;-61
2023/10/10 06:42:46;;;;;;;48.70;31.17;;;;;;;;;;5082669;28;20102;-61
2023/10/10 06:45:21;;;;;;;52.42;32.47;;;;;;;;;;5082177;28;20056;-58
2023/10/10 06:47:50;;;;;;;52.35;34.85;;;;;;;;;;5082859;28;20060;-62
2023/10/10 06:50:23;;;;;;;48.78;33.40;;;;;;;;;;5080171;28;20106;-61
2023/10/10 06:52:54;;;;;;;50.53;33.15;;;;;;;;;;5082802;28;20056;-61
2023/10/10 06:55:22;;;;;;;49.28;32.55;;;;;;;;;;5077292;28;20078;-61
2023/10/10 06:57:58;;;;;;;49.63;32.92;;;;;;;;;;5081808;28;20063;-58
2023/10/10 07:00:29;;;;;;;49.42;31.83;;;;;;;;;;5078569;28;20049;-60
2023/10/10 07:02:56;;;;;;;49.22;32.50;;;;;;;;;;5083490;28;20045;-62
2023/10/10 07:05:26;;;;;;;46.97;31.38;;;;;;;;;;5082418;28;20396;-61
2023/10/10 07:08:00;;;;;;;50.53;31.88;;;;;;;;;;5082522;28;20053;-61
2023/10/10 07:10:33;;;;;;;47.53;32.55;;;;;;;;;;5081019;28;20814;-61
2023/10/10 07:13:01;;;;;;;52.03;32.10;;;;;;;;;;5083281;28;20067;-61
2023/10/10 07:15:42;;;;;;;45.33;32.08;;;;;;;;;;5082624;28;20344;-61
2023/10/10 07:18:15;;;;;;;49.15;32.47;;;;;;;;;;5083153;28;20044;-62
2023/10/10 07:23:37;;;;;;;48.00;31.27;;;;;;;;;;5068476;28;20049;-62
2023/10/10 07:26:22;;;;;;;50.92;32.47;;;;;;;;;;5079768;28;20499;-61
2023/10/10 07:28:49;;;;;;;47.33;31.02;;;;;;;;;;5083463;28;20053;-61
2023/10/10 07:31:23;;;;;;;52.40;35.33;;;;;;;;;;5081964;28;20056;-62
2023/10/10 07:34:04;;;;;;;50.35;33.92;;;;;;;;;;5082242;28;20053;-60
2023/10/10 07:36:33;;;;;;;50.78;33.28;;;;;;;;;;5081736;28;20053;-61
2023/10/10 07:41:45;;;;;;;49.33;33.63;;;;;;;;;;5078647;28;20536;-61
2023/10/10 07:44:14;;;;;;;49.75;33.05;;;;;;;;;;5082753;28;20129;-61
2023/10/10 07:47:07;;;;;;;50.95;32.72;;;;;;;;;;5081294;28;20060;-60
2023/10/10 07:49:28;;;;;;;51.33;33.78;;;;;;;;;;5073194;28;20466;-61
2023/10/10 07:51:54;;;;;;;45.22;32.67;;;;;;;;;;5069362;28;20125;-62
2023/10/10 07:54:38;;;;;;;44.00;31.52;;;;;;;;;;5081660;28;20057;-60
2023/10/10 07:57:11;;;;;;;47.13;31.23;;;;;;;;;;5077591;28;20056;-61
2023/10/10 07:59:37;;;;;;;42.45;30.83;;;;;;;;;;5081911;28;20052;-60
2023/10/10 08:02:19;;;;;;;50.63;32.17;;;;;;;;;;5082009;28;20136;-61
2023/10/10 08:04:50;;;;;;;45.33;32.28;;;;;;;;;;5082068;28;20494;-60
2023/10/10 08:07:19;;;;;;;46.03;30.65;;;;;;;;;;5079478;28;20517;-61
2023/10/10 08:09:47;;;;;;;42.95;31.50;;;;;;;;;;5082485;28;20063;-61
2023/10/10 08:12:13;;;;;;;42.65;28.80;;;;;;;;;;5081583;28;20080;-62
2023/10/10 08:14:39;;;;;;;52.92;29.17;;;;;;;;;;5081042;28;20575;-60
2023/10/10 08:17:25;;;;;;;41.53;30.60;;;;;;;;;;5081367;28;20139;-60
2023/10/10 08:19:53;;;;;;;42.38;29.42;;;;;;;;;;5081846;28;20052;-62
2023/10/10 08:22:25;;;;;;;43.05;29.25;;;;;;;;;;5079885;28;20060;-60
2023/10/10 08:24:51;;;;;;;42.13;29.73;;;;;;;;;;5082150;28;20061;-61
2023/10/10 08:27:18;;;;;;;38.53;28.42;;;;;;;;;;5081070;28;20052;-61
2023/10/10 08:29:47;;;;;;;43.95;28.90;;;;;;;;;;5079027;28;20063;-60
2023/10/10 08:32:13;;;;;;;39.67;28.13;;;;;;;;;;5073361;28;20143;-62
2023/10/10 08:34:42;;;;;;;39.22;27.60;;;;;;;;;;5079149;28;20110;-60
2023/10/10 08:37:09;;;;;;;42.67;29.83;;;;;;;;;;5080790;28;20136;-61
2023/10/10 08:39:36;;;;;;;38.08;28.15;;;;;;;;;;5081398;28;20044;-61
2023/10/10 08:42:22;;;;;;;34.85;28.38;;;;;;;;;;5080678;28;20053;-61
2023/10/10 08:44:55;;;;;;;39.92;26.98;;;;;;;;;;5081891;28;20063;-61
2023/10/10 08:47:32;;;;;;;37.00;26.83;;;;;;;;;;5076367;28;20740;-61
2023/10/10 08:49:58;;;;;;;34.95;25.60;;;;;;;;;;5076854;28;20080;-62
2023/10/10 08:52:25;;;;;;;38.67;24.20;;;;;;;;;;5080560;28;20052;-61
2023/10/10 08:54:53;;;;;;;31.25;25.38;;;;;;;;;;5081379;28;20478;-61
2023/10/10 08:57:27;;;;;;;35.30;25.75;;;;;;;;;;5079798;28;20629;-61
2023/10/10 08:59:53;;;;;;;30.73;24.25;;;;;;;;;;5081071;28;20553;-62
2023/10/10 09:02:20;;;;;;;33.33;24.83;;;;;;;;;;5081369;28;20703;-61
2023/10/10 09:04:47;;;;;;;33.58;24.38;;;;;;;;;;5081060;28;20056;-62
2023/10/10 09:07:30;;;;;;;30.48;23.25;;;;;;;;;;5080355;28;20055;-62
2023/10/10 09:10:13;;;;;;;29.80;22.02;;;;;;;;;;5082300;28;20541;-61
2023/10/10 09:12:52;;;;;;;26.67;20.52;;;;;;;;;;5081160;28;20095;-63
2023/10/10 09:15:20;;;;;;;27.60;20.73;;;;;;;;;;5094492;28;20642;-62
2023/10/10 09:17:47;;;;;;;24.42;20.00;;;;;;;;;;5083507;28;20152;-61
2023/10/10 09:20:24;;;;;;;26.95;20.23;;;;;;;;;;5079980;28;20122;-61
2023/10/10 09:22:55;;;;;;;26.15;20.13;;;;;;;;;;5081308;28;20052;-63
2023/10/10 09:25:27;;;;;;;23.30;18.48;;;;;;;;;;5079892;28;20052;-61
2023/10/10 09:27:57;;;;;;;28.92;20.90;;;;;;;;;;5080310;28;20060;-60
2023/10/10 09:30:30;;;;;;;23.65;18.88;;;;;;;;;;5068161;28;20379;-62
2023/10/10 09:33:12;;;;;;;28.00;19.92;;;;;;;;;;5075976;28;20057;-62
2023/10/10 09:35:40;;;;;;;23.65;17.10;;;;;;;;;;5060741;28;20561;-61
2023/10/10 09:38:12;;;;;;;25.45;18.90;;;;;;;;;;5077692;28;20530;-62
2023/10/10 09:40:40;;;;;;;23.33;17.45;;;;;;;;;;5073622;28;20525;-62
2023/10/10 09:43:12;;;;;;;22.35;17.95;;;;;;;;;;5073482;28;20056;-61
2023/10/10 09:45:55;;;;;;;23.00;18.40;;;;;;;;;;5068841;28;20061;-61
2023/10/10 09:48:46;;;;;;;21.58;16.13;;;;;;;;;;5068608;28;20415;-62
2023/10/10 09:51:30;;;;;;;23.42;16.95;;;;;;;;;;5063934;28;20530;-61
2023/10/10 09:56:45;;;;;;;31.25;16.75;;;;;;;;;;5079867;28;20060;-61
2023/10/10 09:59:14;;;;;;;26.40;16.80;;;;;;;;;;5071256;28;20541;-59
2023/10/10 10:01:45;;;;;;;21.42;15.20;;;;;;;;;;5083358;28;20057;-61
2023/10/10 10:04:18;;;;;;;19.83;15.40;;;;;;;;;;5084182;28;20048;-61
2023/10/10 10:06:56;;;;;;;19.98;15.50;;;;;;;;;;5083425;28;20167;-61
2023/10/10 10:09:45;;;;;;;18.15;14.50;;;;;;;;;;5083559;28;20139;-61
2023/10/10 10:12:29;;;;;;;19.10;14.18;;;;;;;;;;5083708;28;20052;-61
2023/10/10 10:15:16;;;;;;;22.17;15.25;;;;;;;;;;5083061;28;20493;-61
2023/10/10 10:17:48;;;;;;;19.52;15.05;;;;;;;;;;5077143;28;20649;-61
2023/10/10 10:23:27;;;;;;;21.15;16.13;;;;;;;;;;5075468;28;20111;-59
2023/10/10 10:25:54;;;;;;;20.92;13.38;;;;;;;;;;5082031;28;20060;-61
2023/10/10 10:28:28;;;;;;;18.48;13.98;;;;;;;;;;5083038;28;20227;-62
2023/10/10 10:30:54;;;;;;;22.70;15.70;;;;;;;;;;5082388;28;20053;-61
2023/10/10 10:33:22;;;;;;;18.15;14.00;;;;;;;;;;5081341;28;20052;-61
2023/10/10 10:35:59;;;;;;;20.42;15.23;;;;;;;;;;5081477;28;20161;-62
2023/10/10 10:38:26;;;;;;;19.33;14.18;;;;;;;;;;5079456;28;20606;-61
2023/10/10 10:41:07;;;;;;;19.02;14.15;;;;;;;;;;5082463;28;20105;-62
2023/10/10 10:43:41;;;;;;;22.05;15.80;;;;;;;;;;5081613;28;20552;-61
2023/10/10 10:46:15;;;;;;;21.38;15.00;;;;;;;;;;5082381;28;20055;-61
2023/10/10 10:48:47;;;;;;;21.15;14.98;;;;;;;;;;5083484;28;20271;-62
2023/10/10 10:54:00;;;;;;;18.30;13.73;;;;;;;;;;5073718;28;20152;-62
2023/10/10 10:59:20;;;;;;;18.45;14.15;;;;;;;;;;5082218;28;20716;-61
2023/10/10 11:01:55;;;;;;;19.80;14.15;;;;;;;;;;5083029;28;20056;-62
2023/10/10 11:07:03;;;;;;;19.10;13.63;;;;;;;;;;5082507;28;20521;-61
2023/10/10 11:09:31;;;;;;;23.67;15.07;;;;;;;;;;5081524;28;20134;-61
2023/10/10 11:12:02;;;;;;;22.60;14.75;;;;;;;;;;5080431;28;20544;-61
2023/10/10 11:14:31;;;;;;;18.73;15.23;;;;;;;;;;5081499;28;20051;-62
2023/10/10 11:16:57;;;;;;;18.30;14.55;;;;;;;;;;5081691;28;20053;-62
2023/10/10 11:19:38;;;;;;;20.63;14.98;;;;;;;;;;5082056;28;20106;-59
2023/10/10 11:22:38;;;;;;;23.42;14.48;;;;;;;;;;5082337;28;20130;-62
2023/10/10 11:25:04;;;;;;;21.00;14.52;;;;;;;;;;5068907;28;20122;-61
2023/10/10 11:27:43;;;;;;;19.05;13.15;;;;;;;;;;5079093;28;20434;-62
2023/10/10 11:30:11;;;;;;;16.33;12.85;;;;;;;;;;5072076;28;20061;-62
2023/10/10 11:32:45;;;;;;;19.17;13.70;;;;;;;;;;5079987;28;20056;-62
2023/10/10 11:35:22;;;;;;;18.48;13.52;;;;;;;;;;5081979;28;20060;-62
2023/10/10 11:37:59;;;;;;;17.80;13.40;;;;;;;;;;5075639;28;20343;-59
2023/10/10 11:42:55;;;;;;;17.05;12.77;;;;;;;;;;5081508;28;20067;-62
2023/10/10 11:45:27;;;;;;;16.27;11.93;;;;;;;;;;5081376;28;20179;-62
2023/10/10 11:48:00;;;;;;;21.02;13.20;;;;;;;;;;5081757;28;20114;-62
2023/10/10 11:50:45;;;;;;;17.13;12.93;;;;;;;;;;5082373;28;20087;-61
2023/10/10 11:53:13;;;;;;;21.35;14.70;;;;;;;;;;5082089;28;20447;-61
2023/10/10 11:55:42;;;;;;;21.30;13.02;;;;;;;;;;5082961;28;20554;-62
2023/10/10 11:58:16;;;;;;;18.33;11.07;;;;;;;;;;5081501;28;20341;-62
2023/10/10 12:01:05;;;;;;;18.77;11.15;;;;;;;;;;5081410;28;20048;-61
2023/10/10 12:03:41;;;;;;;14.23;10.35;;;;;;;;;;5082184;28;20067;-62
2023/10/10 12:06:19;;;;;;;20.02;11.52;;;;;;;;;;5081953;28;20055;-62
2023/10/10 12:08:48;;;;;;;16.77;11.43;;;;;;;;;;5080838;28;20052;-62
2023/10/10 12:11:21;;;;;;;15.13;10.80;;;;;;;;;;5083075;28;20056;-62
2023/10/10 12:13:53;;;;;;;16.88;11.00;;;;;;;;;;5081121;28;20092;-61
2023/10/10 12:16:27;;;;;;;18.15;11.73;;;;;;;;;;5081764;28;20527;-62
2023/10/10 12:18:54;;;;;;;21.30;11.98;;;;;;;;;;5080262;28;20048;-61
2023/10/10 12:21:21;;;;;;;15.07;10.25;;;;;;;;;;5081251;28;20122;-61
2023/10/10 12:23:53;;;;;;;14.32;10.70;;;;;;;;;;5061745;28;20636;-62
2023/10/10 12:26:25;;;;;;;15.25;10.82;;;;;;;;;;5080326;28;20599;-62
2023/10/10 12:28:54;;;;;;;17.40;10.68;;;;;;;;;;5080422;28;20142;-62
2023/10/10 12:31:21;;;;;;;15.90;10.88;;;;;;;;;;5080713;28;20499;-62
2023/10/10 12:33:49;;;;;;;14.27;10.48;;;;;;;;;;5082014;28;20048;-61
2023/10/10 12:36:16;;;;;;;15.30;11.32;;;;;;;;;;5080231;28;20083;-62
2023/10/10 12:38:43;;;;;;;15.55;11.38;;;;;;;;;;5075588;28;20049;-61
2023/10/10 12:41:11;;;;;;;14.90;11.40;;;;;;;;;;5081817;28;20049;-62
2023/10/10 12:43:38;;;;;;;15.30;11.13;;;;;;;;;;5080145;28;20057;-62
2023/10/10 12:46:07;;;;;;;14.35;11.68;;;;;;;;;;5077040;28;20503;-61
2023/10/10 12:48:39;;;;;;;18.30;11.45;;;;;;;;;;5080577;28;20063;-63
2023/10/10 12:51:09;;;;;;;14.52;10.18;;;;;;;;;;5080233;28;20111;-61
2023/10/10 12:53:39;;;;;;;14.10;10.45;;;;;;;;;;5081152;28;20932;-61
2023/10/10 12:56:16;;;;;;;17.30;12.05;;;;;;;;;;5082394;28;20048;-61
2023/10/10 12:58:51;;;;;;;14.75;11.18;;;;;;;;;;5077407;28;20058;-61
2023/10/10 13:01:23;;;;;;;17.70;10.98;;;;;;;;;;5081351;28;20132;-62
2023/10/10 13:03:51;;;;;;;14.27;10.55;;;;;;;;;;5081029;28;20143;-61
2023/10/10 13:06:18;;;;;;;19.90;10.98;;;;;;;;;;5081494;28;20143;-62
2023/10/10 13:09:27;;;;;;;15.30;11.70;;;;;;;;;;5081559;28;20052;-62
2023/10/10 13:11:43;;;;;;;19.60;12.57;;;;;;;;;;5058110;28;20080;-63
2023/10/10 13:14:15;;;;;;;19.85;12.60;;;;;;;;;;5078268;28;20135;-63
2023/10/10 13:19:14;;;;;;;17.27;12.55;;;;;;;;;;5076381;28;20130;-62
2023/10/10 13:21:41;;;;;;;18.92;12.32;;;;;;;;;;5064715;28;20045;-62
2023/10/10 13:24:11;;;;;;;17.42;12.43;;;;;;;;;;5084007;28;20059;-61
2023/10/10 13:26:38;;;;;;;19.50;12.82;;;;;;;;;;5083794;28;20507;-62
2023/10/10 13:29:05;;;;;;;17.83;11.95;;;;;;;;;;5081587;28;20055;-61
2023/10/10 13:31:32;;;;;;;16.23;11.15;;;;;;;;;;5084091;28;20231;-62
2023/10/10 13:33:58;;;;;;;21.17;12.90;;;;;;;;;;5084705;28;20063;-62
2023/10/10 13:36:25;;;;;;;17.73;10.93;;;;;;;;;;5071232;28;20127;-62
2023/10/10 13:38:57;;;;;;;16.70;10.45;;;;;;;;;;5079895;28;20048;-62
2023/10/10 13:41:46;;;;;;;16.90;11.32;;;;;;;;;;5084295;28;20060;-62
2023/10/10 13:44:11;;;;;;;21.52;11.80;;;;;;;;;;5084151;28;20052;-62
2023/10/10 13:46:37;;;;;;;19.23;10.80;;;;;;;;;;5084108;28;20416;-62
2023/10/10 13:49:08;;;;;;;19.40;10.63;;;;;;;;;;5083524;28;20526;-62
2023/10/10 13:51:39;;;;;;;14.75;9.90;;;;;;;;;;5078735;28;20055;-62
2023/10/10 13:54:07;;;;;;;17.48;10.77;;;;;;;;;;5070105;28;20114;-61
2023/10/10 13:56:33;;;;;;;16.88;10.27;;;;;;;;;;5077949;28;20053;-62
2023/10/10 13:59:00;;;;;;;17.33;10.27;;;;;;;;;;5082359;28;20052;-62
2023/10/10 14:01:29;;;;;;;14.35;9.52;;;;;;;;;;5083161;28;20155;-61
2023/10/10 14:04:01;;;;;;;15.88;9.77;;;;;;;;;;5081459;28;20076;-40
2023/10/10 14:06:34;;;;;;;16.92;11.05;;;;;;;;;;5067323;28;20063;-60
2023/10/10 14:09:03;;;;;;;15.32;10.68;;;;;;;;;;5079023;28;20057;-60
2023/10/10 14:11:32;;;;;;;16.33;9.40;;;;;;;;;;5081328;28;20114;-61
2023/10/10 14:13:59;;;;;;;15.80;10.23;;;;;;;;;;5077154;28;20444;-62
2023/10/10 14:16:25;;;;;;;14.48;10.32;;;;;;;;;;5082818;28;20135;-61
2023/10/10 14:18:52;;;;;;;17.13;10.45;;;;;;;;;;5083792;28;20060;-61
2023/10/10 14:21:26;;;;;;;13.52;9.63;;;;;;;;;;5084518;28;20139;-62
2023/10/10 14:24:04;;;;;;;17.38;11.10;;;;;;;;;;5083411;28;20145;-62
2023/10/10 14:26:33;;;;;;;14.30;9.32;;;;;;;;;;5083766;28;20088;-62
2023/10/10 14:29:07;;;;;;;16.55;10.57;;;;;;;;;;5082689;28;20072;-61
2023/10/10 14:31:35;;;;;;;12.52;9.30;;;;;;;;;;5083337;28;20056;-60
2023/10/10 14:34:04;;;;;;;21.38;10.35;;;;;;;;;;5083638;28;20059;-61
2023/10/10 14:36:31;;;;;;;20.42;9.85;;;;;;;;;;5083258;28;20098;-60
2023/10/10 14:38:57;;;;;;;18.98;9.88;;;;;;;;;;5082268;28;20091;-62
2023/10/10 14:41:29;;;;;;;17.52;9.77;;;;;;;;;;5084306;28;20053;-61
2023/10/10 14:44:00;;;;;;;17.48;9.70;;;;;;;;;;5083192;28;20075;-60
2023/10/10 14:46:33;;;;;;;15.85;9.75;;;;;;;;;;5081259;28;20057;-61
2023/10/10 14:49:01;;;;;;;12.35;7.72;;;;;;;;;;5083201;28;20060;-61
2023/10/10 14:51:39;;;;;;;12.15;8.13;;;;;;;;;;5084127;28;20447;-62
2023/10/10 14:54:12;;;;;;;18.88;8.70;;;;;;;;;;5081475;28;20057;-62
2023/10/10 14:56:45;;;;;;;16.90;8.45;;;;;;;;;;5075476;28;20445;-62
2023/10/10 14:59:17;;;;;;;16.33;8.27;;;;;;;;;;5081245;28;20102;-61
2023/10/10 15:01:47;;;;;;;13.60;7.80;;;;;;;;;;5083553;28;20062;-61
2023/10/10 15:04:18;;;;;;;14.07;7.53;;;;;;;;;;5071528;28;20080;-60
2023/10/10 15:06:45;;;;;;;15.30;6.65;;;;;;;;;;5079011;28;20536;-62
2023/10/10 15:09:13;;;;;;;14.82;7.45;;;;;;;;;;5083369;28;20069;-61
2023/10/10 15:11:41;;;;;;;10.10;6.90;;;;;;;;;;5077967;28;20079;-61
2023/10/10 15:14:12;;;;;;;11.07;7.75;;;;;;;;;;5084107;28;20053;-61
2023/10/10 15:16:39;;;;;;;12.07;8.02;;;;;;;;;;5082646;28;20056;-64
2023/10/10 15:19:07;;;;;;;10.80;7.47;;;;;;;;;;5083411;28;20497;-61
2023/10/10 15:21:34;;;;;;;15.70;7.90;;;;;;;;;;5083442;28;20053;-61
2023/10/10 15:24:04;;;;;;;13.60;7.32;;;;;;;;;;5083025;28;20049;-61
2023/10/10 15:26:32;;;;;;;17.63;7.53;;;;;;;;;;5083376;28;20434;-61
2023/10/10 15:29:01;;;;;;;12.80;7.10;;;;;;;;;;5081530;28;20106;-61
2023/10/10 15:31:33;;;;;;;13.52;6.95;;;;;;;;;;5082963;28;20048;-61
2023/10/10 15:34:00;;;;;;;11.52;7.10;;;;;;;;;;5083318;28;20044;-61
2023/10/10 15:36:30;;;;;;;15.93;7.05;;;;;;;;;;5083948;28;20110;-60
2023/10/10 15:39:05;;;;;;;9.70;6.00;;;;;;;;;;5076008;28;20051;-62
2023/10/10 15:41:34;;;;;;;14.95;6.82;;;;;;;;;;5077941;28;20060;-62
2023/10/10 15:44:02;;;;;;;12.32;7.32;;;;;;;;;;5081726;28;20064;-61
2023/10/10 15:46:30;;;;;;;13.75;7.10;;;;;;;;;;5082864;28;20056;-61
2023/10/10 15:48:57;;;;;;;11.07;6.65;;;;;;;;;;5082342;28;20053;-61
2023/10/10 15:51:23;;;;;;;11.63;6.43;;;;;;;;;;5096792;28;20154;-61
2023/10/10 15:53:50;;;;;;;10.10;6.57;;;;;;;;;;5082425;28;20063;-60
2023/10/10 15:56:17;;;;;;;10.77;6.95;;;;;;;;;;5082804;28;20136;-60
2023/10/10 15:58:49;;;;;;;14.43;6.32;;;;;;;;;;5072751;28;20098;-61
2023/10/10 16:01:21;;;;;;;13.63;6.32;;;;;;;;;;5072494;28;20431;-61
2023/10/10 16:03:55;;;;;;;10.30;6.38;;;;;;;;;;5078223;28;20076;-61
2023/10/10 16:06:22;;;;;;;9.38;6.20;;;;;;;;;;5075326;28;20498;-61
2023/10/10 16:08:49;;;;;;;10.25;6.22;;;;;;;;;;5081397;28;20133;-60
2023/10/10 16:11:16;;;;;;;13.38;7.25;;;;;;;;;;5073342;28;20929;-61
2023/10/10 16:13:45;;;;;;;13.45;7.57;;;;;;;;;;5082261;28;20084;-61
2023/10/10 16:16:13;;;;;;;12.27;6.65;;;;;;;;;;5082344;28;20138;-61
2023/10/10 16:18:40;;;;;;;12.57;7.07;;;;;;;;;;5080736;28;20372;-61
2023/10/10 16:21:10;;;;;;;12.98;6.20;;;;;;;;;;5078054;28;20057;-58
2023/10/10 16:23:38;;;;;;;11.57;5.97;;;;;;;;;;5079955;28;20124;-60
2023/10/10 16:26:04;;;;;;;10.52;5.95;;;;;;;;;;5078420;28;20056;-60
2023/10/10 16:28:35;;;;;;;10.45;6.53;;;;;;;;;;5081881;28;20052;-61
2023/10/10 16:31:06;;;;;;;14.40;6.38;;;;;;;;;;5081506;28;20466;-61
2023/10/10 16:33:37;;;;;;;15.10;6.57;;;;;;;;;;5082323;28;20052;-61
2023/10/10 16:36:05;;;;;;;13.52;6.18;;;;;;;;;;5082063;28;20071;-61
2023/10/10 16:38:35;;;;;;;10.00;6.70;;;;;;;;;;5082109;28;20564;-61
2023/10/10 16:41:02;;;;;;;11.55;6.43;;;;;;;;;;5082715;28;20505;-63
2023/10/10 16:43:29;;;;;;;10.80;6.65;;;;;;;;;;5077743;28;20435;-60
2023/10/10 16:45:55;;;;;;;18.23;7.65;;;;;;;;;;5082599;28;20052;-61
2023/10/10 16:48:22;;;;;;;10.88;6.38;;;;;;;;;;5081952;28;20080;-60
2023/10/10 16:50:48;;;;;;;13.82;6.65;;;;;;;;;;5074646;28;20295;-60
2023/10/10 16:53:15;;;;;;;15.05;6.78;;;;;;;;;;5065778;28;20491;-61
2023/10/10 16:55:41;;;;;;;13.27;5.63;;;;;;;;;;5085678;28;20122;-60
2023/10/10 16:58:14;;;;;;;10.05;6.18;;;;;;;;;;5083611;28;20152;-60
2023/10/10 17:00:42;;;;;;;11.95;6.47;;;;;;;;;;5085701;28;20048;-61
2023/10/10 17:03:11;;;;;;;12.23;7.03;;;;;;;;;;5085009;28;20095;-61
2023/10/10 17:05:40;;;;;;;16.63;6.60;;;;;;;;;;5084639;28;20060;-61
2023/10/10 17:08:08;;;;;;;11.23;6.70;;;;;;;;;;5085297;28;20052;-60
2023/10/10 17:10:35;;;;;;;11.77;6.75;;;;;;;;;;5084998;28;20126;-60
2023/10/10 17:13:05;;;;;;;11.43;7.05;;;;;;;;;;5084746;28;20057;-60
2023/10/10 17:15:35;;;;;;;10.23;6.18;;;;;;;;;;5083589;28;20053;-61
2023/10/10 17:18:03;;;;;;;13.13;6.18;;;;;;;;;;5079482;28;20049;-61
2023/10/10 17:20:30;;;;;;;10.23;6.22;;;;;;;;;;5072581;28;20052;-60
2023/10/10 17:22:59;;;;;;;13.27;6.35;;;;;;;;;;5085418;28;20135;-61
2023/10/10 17:25:28;;;;;;;12.70;6.68;;;;;;;;;;5085036;28;20137;-60
2023/10/10 17:27:54;;;;;;;19.15;7.10;;;;;;;;;;5084559;28;20083;-61
2023/10/10 17:30:21;;;;;;;15.18;7.40;;;;;;;;;;5084545;28;20052;-61
2023/10/10 17:32:47;;;;;;;11.02;6.53;;;;;;;;;;5083432;28;20056;-60
2023/10/10 17:35:17;;;;;;;9.40;6.63;;;;;;;;;;5080212;28;20552;-61